Terminal Aerodrome Forecast
Issued by NWS Goodland, KS

Home | Current Version | Previous Version | Text Only | Print | Product List | Glossary On
Versions: 1 2 3 4 5 6 7 8 9 10 11 12 13 14
002
FTUS43 KGLD 261737
TAFGLD
TAF
KGLD 261737Z 2618/2718 22008KT P6SM SCT250
     FM262100 18011G19KT P6SM SCT250
     FM270000 22008KT P6SM BKN200
     FM270300 36019G27KT P6SM VCTS SCT020 OVC050CB
     FM270500 34018G26KT P6SM VCTS BKN015CB
     FM270800 32017G25KT P6SM VCSH OVC020
     FM271300 32019G28KT P6SM BKN035
     FM271700 32026G37KT P6SM BKN045=

USA.gov is the U.S. government's official web portal to all federal, state and local government web resources and services.